createdAt,value
2019-01-29T00:01:38.648Z,2.50
2019-01-29T00:04:04.829Z,2.50
2019-01-29T00:06:30.966Z,2.50
2019-01-29T00:08:57.123Z,2.40
2019-01-29T00:11:23.271Z,2.40
2019-01-29T00:13:49.431Z,2.50
2019-01-29T00:16:15.811Z,2.40
2019-01-29T00:18:41.959Z,2.40
2019-01-29T00:21:08.096Z,2.40
2019-01-29T00:23:34.246Z,2.50
2019-01-29T00:26:00.389Z,2.40
2019-01-29T00:28:26.543Z,2.50
2019-01-29T00:30:52.679Z,2.50
2019-01-29T00:33:18.832Z,2.40
2019-01-29T00:35:44.993Z,2.40
2019-01-29T00:38:11.153Z,2.50
2019-01-29T00:40:37.323Z,2.50
2019-01-29T00:43:03.479Z,2.50
2019-01-29T00:45:29.615Z,2.50
2019-01-29T00:47:55.764Z,2.40
2019-01-29T00:50:21.907Z,2.40
2019-01-29T00:52:48.214Z,2.30
2019-01-29T00:55:15.146Z,2.30
2019-01-29T00:57:41.295Z,2.30
2019-01-29T01:00:11.145Z,2.30
2019-01-29T01:02:37.287Z,2.20
2019-01-29T01:05:04.408Z,2.20
2019-01-29T01:07:30.547Z,2.20
2019-01-29T01:09:57.496Z,2.00
2019-01-29T01:12:23.756Z,2.00
2019-01-29T01:14:49.927Z,2.00
2019-01-29T01:17:16.059Z,1.90
2019-01-29T01:19:42.215Z,1.90
2019-01-29T01:22:08.356Z,1.80
2019-01-29T01:24:34.503Z,1.80
2019-01-29T01:27:00.642Z,1.90
2019-01-29T01:29:26.843Z,1.80
2019-01-29T01:31:52.984Z,1.80
2019-01-29T01:34:19.134Z,1.70
2019-01-29T01:36:45.296Z,1.70
2019-01-29T01:39:11.454Z,1.70
2019-01-29T01:41:37.668Z,1.70
2019-01-29T01:44:04.087Z,1.70
2019-01-29T01:46:30.245Z,1.70
2019-01-29T01:48:56.379Z,1.60
2019-01-29T01:51:22.775Z,1.60
2019-01-29T01:53:49.143Z,1.60
2019-01-29T01:56:15.312Z,1.70
2019-01-29T01:58:41.459Z,1.70
2019-01-29T02:01:07.607Z,1.60
2019-01-29T02:03:33.747Z,1.60
2019-01-29T02:06:00.174Z,1.60
2019-01-29T02:08:26.303Z,1.50
2019-01-29T02:10:52.458Z,1.50
2019-01-29T02:13:18.590Z,1.50
2019-01-29T02:15:44.748Z,1.50
2019-01-29T02:18:10.904Z,1.50
2019-01-29T02:20:37.055Z,1.50
2019-01-29T02:23:08.075Z,1.50
2019-01-29T02:25:31.272Z,1.50
2019-01-29T02:27:57.412Z,1.60
2019-01-29T02:30:23.563Z,1.60
2019-01-29T02:32:49.707Z,1.70
2019-01-29T02:35:15.849Z,1.70
2019-01-29T02:37:42.250Z,1.70
2019-01-29T02:40:12.083Z,1.80
2019-01-29T02:42:38.251Z,1.80
2019-01-29T02:45:07.796Z,1.90
2019-01-29T02:47:33.946Z,1.90
2019-01-29T02:50:00.098Z,1.90
2019-01-29T02:52:26.443Z,1.90
2019-01-29T02:54:52.584Z,1.90
2019-01-29T02:57:18.758Z,1.90
2019-01-29T02:59:44.962Z,1.90
2019-01-29T03:02:11.117Z,1.90
2019-01-29T03:04:37.261Z,1.80
2019-01-29T03:07:03.422Z,1.80
2019-01-29T03:09:29.565Z,1.80
2019-01-29T03:11:55.691Z,1.90
2019-01-29T03:14:22.827Z,1.90
2019-01-29T03:16:48.977Z,1.80
2019-01-29T03:19:15.358Z,1.80
2019-01-29T03:21:41.490Z,1.90
2019-01-29T03:24:07.631Z,1.80
2019-01-29T03:26:33.777Z,1.80
2019-01-29T03:28:59.897Z,1.90
2019-01-29T03:31:26.043Z,1.90
2019-01-29T03:33:52.169Z,1.90
2019-01-29T03:36:18.576Z,1.80
2019-01-29T03:38:44.728Z,1.80
2019-01-29T03:41:10.880Z,1.80
2019-01-29T03:43:37.007Z,1.70
2019-01-29T03:46:03.155Z,1.70
2019-01-29T03:48:29.290Z,1.70
2019-01-29T03:50:55.438Z,1.60
2019-01-29T03:53:21.567Z,1.60
2019-01-29T03:55:47.715Z,1.60
2019-01-29T03:58:14.094Z,1.60
2019-01-29T04:00:40.236Z,1.60
2019-01-29T04:03:07.366Z,1.50
2019-01-29T04:05:33.515Z,1.50
2019-01-29T04:07:59.692Z,1.50
2019-01-29T04:10:26.084Z,1.50
2019-01-29T04:12:52.474Z,1.40
2019-01-29T04:15:19.719Z,1.40
2019-01-29T04:17:45.951Z,1.40
2019-01-29T04:20:16.933Z,1.30
2019-01-29T04:22:43.089Z,1.30
2019-01-29T04:25:09.215Z,1.30
2019-01-29T04:27:35.372Z,1.20
2019-01-29T04:30:01.512Z,1.20
2019-01-29T04:32:28.690Z,1.20
2019-01-29T04:34:54.827Z,1.10
2019-01-29T04:37:20.977Z,1.10
2019-01-29T04:39:47.127Z,1.10
2019-01-29T04:42:13.279Z,1.10
2019-01-29T04:44:39.412Z,1.10
2019-01-29T04:47:05.791Z,1.10
2019-01-29T04:49:31.924Z,1.10
2019-01-29T04:51:58.088Z,1.10
2019-01-29T04:54:24.226Z,1.10
2019-01-29T04:56:50.368Z,1.10
2019-01-29T04:59:16.517Z,1.10
2019-01-29T05:01:42.906Z,1.10
2019-01-29T05:04:09.055Z,1.10
2019-01-29T05:06:35.438Z,1.00
2019-01-29T05:09:03.879Z,1.00
2019-01-29T05:11:31.017Z,1.00
2019-01-29T05:13:57.166Z,1.00
2019-01-29T05:16:23.308Z,1.00
2019-01-29T05:18:49.455Z,1.00
2019-01-29T05:21:15.594Z,1.00
2019-01-29T05:23:41.740Z,1.00
2019-01-29T05:26:07.884Z,1.10
2019-01-29T05:28:34.046Z,1.10
2019-01-29T05:31:00.403Z,1.10
2019-01-29T05:33:26.544Z,1.20
2019-01-29T05:35:52.905Z,1.20
2019-01-29T05:38:19.070Z,1.20
2019-01-29T05:40:45.219Z,1.20
2019-01-29T05:43:11.626Z,1.20
2019-01-29T05:45:37.773Z,1.20
2019-01-29T05:48:04.138Z,1.20
2019-01-29T05:50:30.300Z,1.20
2019-01-29T05:52:56.438Z,1.20
2019-01-29T05:55:22.854Z,1.10
2019-01-29T05:57:48.967Z,1.10
2019-01-29T06:00:21.068Z,1.10
2019-01-29T06:02:48.602Z,1.10
2019-01-29T06:05:15.012Z,1.10
2019-01-29T06:07:41.147Z,1.10
2019-01-29T06:10:10.119Z,1.10
2019-01-29T06:12:36.533Z,1.20
2019-01-29T06:15:06.538Z,1.20
2019-01-29T06:17:32.678Z,1.30
2019-01-29T06:19:58.823Z,1.30
2019-01-29T06:22:24.954Z,1.40
2019-01-29T06:24:51.114Z,1.40
2019-01-29T06:27:17.498Z,1.50
2019-01-29T06:29:43.872Z,1.50
2019-01-29T06:32:10.002Z,1.50
2019-01-29T06:34:36.152Z,1.50
2019-01-29T06:37:02.296Z,1.60
2019-01-29T06:39:28.707Z,1.60
2019-01-29T06:41:54.867Z,1.70
2019-01-29T06:44:21.006Z,1.70
2019-01-29T06:46:47.152Z,1.70
2019-01-29T06:49:13.509Z,1.80
2019-01-29T06:51:39.663Z,1.80
2019-01-29T06:54:05.794Z,1.80
2019-01-29T06:56:31.951Z,1.90
2019-01-29T06:58:58.095Z,1.90
2019-01-29T07:01:24.278Z,1.90
2019-01-29T07:03:50.486Z,1.90
2019-01-29T07:06:16.637Z,1.90
2019-01-29T07:08:42.793Z,2.00
2019-01-29T07:11:09.228Z,1.90
2019-01-29T07:13:35.362Z,2.00
2019-01-29T07:16:03.412Z,2.00
2019-01-29T07:18:37.227Z,2.00
2019-01-29T07:21:05.523Z,2.00
2019-01-29T07:23:31.655Z,2.00
2019-01-29T07:25:57.823Z,2.10
2019-01-29T07:28:23.954Z,2.30
2019-01-29T07:30:50.095Z,2.30
2019-01-29T07:33:16.355Z,2.40
2019-01-29T07:35:42.482Z,2.40
2019-01-29T07:38:08.622Z,2.50
2019-01-29T07:40:34.999Z,2.70
2019-01-29T07:43:01.157Z,2.70
2019-01-29T07:45:27.285Z,2.70
2019-01-29T07:47:53.658Z,2.70
2019-01-29T07:50:19.803Z,2.70
2019-01-29T07:52:46.186Z,2.70
2019-01-29T07:55:12.316Z,2.70
2019-01-29T07:57:38.496Z,2.50
2019-01-29T08:00:13.383Z,2.60
2019-01-29T08:02:39.536Z,2.70
2019-01-29T08:05:08.707Z,2.60
2019-01-29T08:07:34.864Z,2.80
2019-01-29T08:10:01.002Z,2.80
2019-01-29T08:12:27.156Z,2.90
2019-01-29T08:14:53.295Z,3.00
2019-01-29T08:17:19.454Z,3.10
2019-01-29T08:19:45.590Z,3.00
2019-01-29T08:22:11.726Z,2.90
2019-01-29T08:24:37.883Z,2.80
2019-01-29T08:27:04.011Z,2.90
2019-01-29T08:29:30.718Z,3.00
2019-01-29T08:31:56.999Z,3.00
2019-01-29T08:34:23.382Z,3.00
2019-01-29T08:36:49.516Z,2.90
2019-01-29T08:39:15.677Z,3.00
2019-01-29T08:41:42.051Z,3.10
2019-01-29T08:44:08.439Z,3.30
2019-01-29T08:46:34.566Z,3.10
2019-01-29T08:49:00.951Z,3.40
2019-01-29T08:51:27.130Z,3.20
2019-01-29T08:53:54.288Z,3.20
2019-01-29T08:56:20.418Z,3.20
2019-01-29T08:58:46.570Z,3.10
2019-01-29T09:01:13.024Z,3.20
2019-01-29T09:03:39.477Z,3.40
2019-01-29T09:06:05.615Z,3.50
2019-01-29T09:08:33.039Z,3.60
2019-01-29T09:10:59.183Z,3.70
2019-01-29T09:13:25.583Z,3.80
2019-01-29T09:15:52.174Z,3.80
2019-01-29T09:18:18.323Z,3.90
2019-01-29T09:20:44.706Z,3.80
2019-01-29T09:23:10.848Z,3.80
2019-01-29T09:25:37.023Z,3.70
2019-01-29T09:28:03.161Z,3.60
2019-01-29T09:30:29.603Z,3.60
2019-01-29T09:32:55.773Z,3.50
2019-01-29T09:35:21.919Z,3.50
2019-01-29T09:37:48.071Z,3.70
2019-01-29T09:40:20.120Z,3.70
2019-01-29T09:42:46.503Z,3.70
2019-01-29T09:45:15.454Z,3.80
2019-01-29T09:47:41.594Z,4.00
2019-01-29T09:50:10.641Z,4.20
2019-01-29T09:52:37.038Z,4.20
2019-01-29T09:55:09.221Z,4.30
2019-01-29T09:57:35.355Z,4.60
2019-01-29T10:00:04.352Z,4.50
2019-01-29T10:02:30.495Z,4.60
2019-01-29T10:04:56.631Z,4.60
2019-01-29T10:07:23.010Z,4.70
2019-01-29T10:09:49.376Z,4.50
2019-01-29T10:12:15.523Z,4.40
2019-01-29T10:14:41.671Z,4.40
2019-01-29T10:17:08.014Z,4.40
2019-01-29T10:19:34.145Z,4.40
2019-01-29T10:22:00.293Z,4.40
2019-01-29T10:24:26.426Z,4.60
2019-01-29T10:26:52.614Z,4.60
2019-01-29T10:29:18.835Z,4.90
2019-01-29T10:31:46.238Z,5.10
2019-01-29T10:34:13.365Z,5.10
2019-01-29T10:36:39.496Z,5.20
2019-01-29T10:39:07.829Z,5.10
2019-01-29T10:41:34.246Z,5.00
2019-01-29T10:44:00.400Z,4.90
2019-01-29T10:46:26.534Z,4.90
2019-01-29T10:48:52.670Z,4.90
2019-01-29T10:51:18.826Z,5.00
2019-01-29T10:53:44.959Z,5.00
2019-01-29T10:56:11.130Z,5.10
2019-01-29T10:58:37.271Z,5.20
2019-01-29T11:01:03.658Z,5.30
2019-01-29T11:03:29.802Z,5.30
2019-01-29T11:05:55.932Z,5.20
2019-01-29T11:08:22.315Z,5.20
2019-01-29T11:10:48.542Z,5.20
2019-01-29T11:13:14.693Z,5.30
2019-01-29T11:15:40.954Z,5.30
2019-01-29T11:18:09.394Z,5.40
2019-01-29T11:20:35.522Z,5.40
2019-01-29T11:23:01.677Z,5.40
2019-01-29T11:25:28.936Z,5.50
2019-01-29T11:27:55.390Z,5.60
2019-01-29T11:30:26.338Z,5.60
2019-01-29T11:32:52.490Z,5.40
2019-01-29T11:35:18.622Z,5.40
2019-01-29T11:37:44.766Z,5.30
2019-01-29T11:40:14.438Z,5.20
2019-01-29T11:42:40.833Z,5.20
2019-01-29T11:45:16.143Z,5.20
2019-01-29T11:47:42.288Z,5.20
2019-01-29T11:50:08.831Z,5.10
2019-01-29T11:52:34.991Z,5.10
2019-01-29T11:55:01.247Z,5.10
2019-01-29T11:57:27.611Z,5.20
2019-01-29T11:59:53.770Z,5.20
2019-01-29T12:02:28.041Z,5.20
2019-01-29T12:04:47.992Z,5.30
2019-01-29T12:07:14.205Z,5.40
2019-01-29T12:09:40.345Z,5.40
2019-01-29T12:12:06.483Z,5.40
2019-01-29T12:14:32.655Z,5.50
2019-01-29T12:16:58.778Z,5.50
2019-01-29T12:19:25.207Z,5.50
2019-01-29T12:21:51.334Z,5.60
2019-01-29T12:24:17.486Z,5.60
2019-01-29T12:26:43.859Z,5.50
2019-01-29T12:29:10.002Z,5.60
2019-01-29T12:31:36.126Z,5.60
2019-01-29T12:34:02.265Z,5.60
2019-01-29T12:36:28.675Z,5.60
2019-01-29T12:38:54.827Z,5.40
2019-01-29T12:41:20.966Z,5.40
2019-01-29T12:43:47.114Z,5.40
2019-01-29T12:46:13.502Z,5.40
2019-01-29T12:48:39.662Z,5.40
2019-01-29T12:51:08.721Z,5.40
2019-01-29T12:53:34.868Z,5.50
2019-01-29T12:56:01.034Z,5.60
2019-01-29T12:58:27.163Z,5.70
2019-01-29T13:00:54.227Z,5.80
2019-01-29T13:03:20.359Z,5.70
2019-01-29T13:05:46.501Z,5.60
2019-01-29T13:08:13.638Z,5.50
2019-01-29T13:10:39.786Z,5.50
2019-01-29T13:13:05.919Z,5.50
2019-01-29T13:15:33.002Z,5.50
2019-01-29T13:17:59.718Z,5.50
2019-01-29T13:20:25.892Z,5.40
2019-01-29T13:22:52.254Z,5.40
2019-01-29T13:25:18.402Z,5.40
2019-01-29T13:27:44.770Z,5.40
2019-01-29T13:30:26.887Z,5.50
2019-01-29T13:32:53.013Z,5.50
2019-01-29T13:35:19.263Z,5.40
2019-01-29T13:37:45.400Z,5.50
2019-01-29T13:40:12.265Z,5.50
2019-01-29T13:42:38.407Z,5.50
2019-01-29T13:45:11.197Z,5.50
2019-01-29T13:47:37.332Z,5.50
2019-01-29T13:50:07.279Z,5.50
2019-01-29T13:52:33.411Z,5.50
2019-01-29T13:54:59.551Z,5.50
2019-01-29T13:57:25.682Z,5.50
2019-01-29T13:59:51.819Z,5.50
2019-01-29T14:02:17.978Z,5.50
2019-01-29T14:04:44.118Z,5.50
2019-01-29T14:07:10.282Z,5.50
2019-01-29T14:09:36.413Z,5.50
2019-01-29T14:12:02.662Z,5.50
2019-01-29T14:14:30.700Z,5.50
2019-01-29T14:16:57.087Z,5.50
2019-01-29T14:19:23.220Z,5.40
2019-01-29T14:21:49.372Z,5.40
2019-01-29T14:24:15.503Z,5.30
2019-01-29T14:26:47.601Z,5.40
2019-01-29T14:29:09.918Z,5.30
2019-01-29T14:31:36.092Z,5.30
2019-01-29T14:34:02.223Z,5.20
2019-01-29T14:36:28.383Z,5.20
2019-01-29T14:39:13.127Z,5.20
2019-01-29T14:41:39.286Z,5.20
2019-01-29T14:44:05.431Z,5.20
2019-01-29T14:46:31.585Z,5.20
2019-01-29T14:48:58.051Z,5.20
2019-01-29T14:51:24.211Z,5.10
2019-01-29T14:53:50.367Z,5.10
2019-01-29T14:56:16.594Z,5.10
2019-01-29T14:58:42.729Z,5.10
2019-01-29T15:01:08.978Z,5.10
2019-01-29T15:03:35.115Z,5.00
2019-01-29T15:06:01.260Z,5.00
2019-01-29T15:08:27.506Z,5.00
2019-01-29T15:10:53.644Z,5.00
2019-01-29T15:13:19.789Z,4.90
2019-01-29T15:15:47.826Z,4.90
2019-01-29T15:18:18.659Z,4.80
2019-01-29T15:20:44.798Z,4.80
2019-01-29T15:23:12.215Z,4.80
2019-01-29T15:25:38.363Z,4.80
2019-01-29T15:28:04.556Z,4.80
2019-01-29T15:30:30.931Z,4.70
2019-01-29T15:32:57.086Z,4.70
2019-01-29T15:35:23.237Z,4.70
2019-01-29T15:37:49.387Z,4.70
2019-01-29T15:40:19.727Z,4.70
2019-01-29T15:42:46.875Z,4.60
2019-01-29T15:45:15.224Z,4.60
2019-01-29T15:47:41.359Z,4.50
2019-01-29T15:50:13.618Z,4.50
2019-01-29T15:52:48.317Z,4.40
2019-01-29T15:55:11.526Z,4.30
2019-01-29T15:57:37.682Z,4.30
2019-01-29T16:00:19.130Z,4.20
2019-01-29T16:02:45.283Z,4.10
2019-01-29T16:05:15.646Z,4.10
2019-01-29T16:07:41.779Z,4.00
2019-01-29T16:10:17.307Z,4.00
2019-01-29T16:12:43.669Z,4.00
2019-01-29T16:15:13.210Z,3.90
2019-01-29T16:17:39.359Z,3.90
2019-01-29T16:20:09.314Z,3.80
2019-01-29T16:22:35.446Z,3.80
2019-01-29T16:25:03.083Z,3.80
2019-01-29T16:27:29.460Z,3.80
2019-01-29T16:29:55.599Z,3.80
2019-01-29T16:32:21.743Z,3.70
2019-01-29T16:34:48.122Z,3.70
2019-01-29T16:37:14.262Z,3.80
2019-01-29T16:39:40.644Z,3.70
2019-01-29T16:42:06.798Z,3.70
2019-01-29T16:44:33.174Z,3.60
2019-01-29T16:46:59.566Z,3.60
2019-01-29T16:49:25.935Z,3.60
2019-01-29T16:51:52.092Z,3.50
2019-01-29T16:54:18.462Z,3.40
2019-01-29T16:56:44.893Z,3.40
2019-01-29T16:59:11.034Z,3.30
2019-01-29T17:01:37.410Z,3.40
2019-01-29T17:04:03.547Z,3.40
2019-01-29T17:06:29.750Z,3.30
2019-01-29T17:08:56.163Z,3.30
2019-01-29T17:11:22.310Z,3.30
2019-01-29T17:13:48.678Z,3.30
2019-01-29T17:16:14.839Z,3.30
2019-01-29T17:18:40.992Z,3.30
2019-01-29T17:21:07.143Z,3.30
2019-01-29T17:23:33.522Z,3.30
2019-01-29T17:25:59.666Z,3.20
2019-01-29T17:28:25.819Z,3.20
2019-01-29T17:30:51.970Z,3.20
2019-01-29T17:33:18.412Z,3.10
2019-01-29T17:35:45.289Z,3.10
2019-01-29T17:38:11.658Z,3.10
2019-01-29T17:40:38.035Z,3.00
2019-01-29T17:43:05.080Z,3.00
2019-01-29T17:45:37.354Z,3.00
2019-01-29T17:48:03.503Z,3.00
2019-01-29T17:50:35.342Z,3.00
2019-01-29T17:53:02.494Z,3.00
2019-01-29T17:55:29.626Z,3.00
2019-01-29T17:57:56.011Z,3.00
2019-01-29T18:00:29.021Z,3.00
2019-01-29T18:02:55.388Z,3.00
2019-01-29T18:05:21.531Z,3.00
2019-01-29T18:07:47.910Z,2.90
2019-01-29T18:10:16.043Z,2.90
2019-01-29T18:12:42.206Z,2.90
2019-01-29T18:15:11.735Z,2.90
2019-01-29T18:17:38.176Z,2.90
2019-01-29T18:20:05.768Z,2.90
2019-01-29T18:22:31.923Z,2.90
2019-01-29T18:24:58.048Z,2.90
2019-01-29T18:27:24.198Z,2.90
2019-01-29T18:29:50.328Z,2.90
2019-01-29T18:32:16.694Z,2.90
2019-01-29T18:34:42.838Z,2.80
2019-01-29T18:37:08.991Z,2.80
2019-01-29T18:39:36.131Z,2.80
2019-01-29T18:42:02.526Z,2.80
2019-01-29T18:44:28.654Z,2.80
2019-01-29T18:46:54.814Z,2.80
2019-01-29T18:49:20.967Z,2.70
2019-01-29T18:51:47.340Z,2.80
2019-01-29T18:54:13.711Z,2.80
2019-01-29T18:56:39.856Z,2.80
2019-01-29T18:59:06.243Z,2.80
2019-01-29T19:01:32.630Z,2.70
2019-01-29T19:03:58.791Z,2.70
2019-01-29T19:06:24.922Z,2.80
2019-01-29T19:08:51.307Z,2.70
2019-01-29T19:11:17.438Z,2.80
2019-01-29T19:13:43.817Z,2.80
2019-01-29T19:16:09.958Z,2.80
2019-01-29T19:18:36.106Z,2.80
2019-01-29T19:21:02.258Z,2.80
2019-01-29T19:23:28.402Z,2.80
2019-01-29T19:25:54.538Z,2.80
2019-01-29T19:28:22.102Z,2.80
2019-01-29T19:30:48.518Z,2.80
2019-01-29T19:33:14.663Z,2.80
2019-01-29T19:35:40.812Z,2.70
2019-01-29T19:38:06.961Z,2.70
2019-01-29T19:40:33.132Z,2.70
2019-01-29T19:42:59.610Z,2.70
2019-01-29T19:45:28.363Z,2.70
2019-01-29T19:47:55.534Z,2.70
2019-01-29T19:50:23.799Z,2.70
2019-01-29T19:52:49.953Z,2.70
2019-01-29T19:55:16.334Z,2.70
2019-01-29T19:57:42.473Z,2.70
2019-01-29T20:00:17.319Z,2.60
2019-01-29T20:02:43.455Z,2.70
2019-01-29T20:05:09.585Z,2.60
2019-01-29T20:07:35.746Z,2.60
2019-01-29T20:10:02.794Z,2.60
2019-01-29T20:12:28.963Z,2.60
2019-01-29T20:14:55.111Z,2.70
2019-01-29T20:17:22.247Z,2.60
2019-01-29T20:19:49.394Z,2.60
2019-01-29T20:22:15.531Z,2.60
2019-01-29T20:24:41.681Z,2.60
2019-01-29T20:27:07.806Z,2.60
2019-01-29T20:29:34.187Z,2.60
2019-01-29T20:32:00.323Z,2.60
2019-01-29T20:34:26.474Z,2.60
2019-01-29T20:36:52.615Z,2.70
2019-01-29T20:39:18.999Z,2.70
2019-01-29T20:41:45.367Z,2.60
2019-01-29T20:44:11.499Z,2.60
2019-01-29T20:46:37.922Z,2.60
2019-01-29T20:49:04.070Z,2.60
2019-01-29T20:51:30.233Z,2.60
2019-01-29T20:53:56.359Z,2.60
2019-01-29T20:56:22.508Z,2.50
2019-01-29T20:58:52.785Z,2.50
2019-01-29T21:01:16.768Z,2.60
2019-01-29T21:03:42.978Z,2.60
2019-01-29T21:06:09.130Z,2.60
2019-01-29T21:08:35.270Z,2.70
2019-01-29T21:11:01.417Z,2.60
2019-01-29T21:13:27.556Z,2.60
2019-01-29T21:15:53.700Z,2.60
2019-01-29T21:18:20.121Z,2.70
2019-01-29T21:20:56.303Z,2.70
2019-01-29T21:23:14.611Z,2.70
2019-01-29T21:25:40.778Z,2.70
2019-01-29T21:28:07.157Z,2.70
2019-01-29T21:30:35.498Z,2.80
2019-01-29T21:33:01.667Z,2.70
2019-01-29T21:35:27.806Z,2.70
2019-01-29T21:37:53.959Z,2.70
2019-01-29T21:40:20.090Z,2.70
2019-01-29T21:42:46.471Z,2.70
2019-01-29T21:45:17.239Z,2.60
2019-01-29T21:47:43.874Z,2.60
2019-01-29T21:50:12.823Z,2.60
2019-01-29T21:52:38.957Z,2.60
2019-01-29T21:55:08.343Z,2.60
2019-01-29T21:57:34.512Z,2.60
2019-01-29T22:00:00.919Z,2.60
2019-01-29T22:02:27.059Z,2.60
2019-01-29T22:04:53.522Z,2.60
2019-01-29T22:07:19.662Z,2.60
2019-01-29T22:09:45.810Z,2.60
2019-01-29T22:12:11.943Z,2.60
2019-01-29T22:14:38.090Z,2.60
2019-01-29T22:17:04.231Z,2.60
2019-01-29T22:19:30.853Z,2.60
2019-01-29T22:21:57.153Z,2.60
2019-01-29T22:24:23.342Z,2.70
2019-01-29T22:26:49.681Z,2.60
2019-01-29T22:29:23.175Z,2.70
2019-01-29T22:31:43.869Z,2.70
2019-01-29T22:34:10.086Z,2.70
2019-01-29T22:36:36.227Z,2.70
2019-01-29T22:39:05.479Z,2.70
2019-01-29T22:41:31.710Z,2.70
2019-01-29T22:43:57.854Z,2.70
2019-01-29T22:46:24.001Z,2.80
2019-01-29T22:48:50.148Z,2.70
2019-01-29T22:51:16.321Z,2.80
2019-01-29T22:53:42.447Z,2.80
2019-01-29T22:56:08.590Z,2.80
2019-01-29T22:58:34.971Z,2.80
2019-01-29T23:01:10.778Z,2.80
2019-01-29T23:03:40.119Z,2.70
2019-01-29T23:06:26.534Z,2.70
2019-01-29T23:08:52.667Z,2.80
2019-01-29T23:11:18.815Z,2.70
2019-01-29T23:13:44.947Z,2.70
2019-01-29T23:16:11.092Z,2.70
2019-01-29T23:18:37.235Z,2.70
2019-01-29T23:21:03.406Z,2.70
2019-01-29T23:23:29.561Z,2.70
2019-01-29T23:25:55.690Z,2.70
2019-01-29T23:28:21.853Z,2.70
2019-01-29T23:30:47.982Z,2.70
2019-01-29T23:33:14.366Z,2.70
2019-01-29T23:35:40.499Z,2.70
2019-01-29T23:38:06.646Z,2.60
2019-01-29T23:40:32.768Z,2.60
2019-01-29T23:42:58.914Z,2.60
2019-01-29T23:45:25.050Z,2.60
2019-01-29T23:47:53.343Z,2.60
2019-01-29T23:50:19.521Z,2.60
2019-01-29T23:52:45.666Z,2.60
2019-01-29T23:55:11.811Z,2.60
2019-01-29T23:57:38.194Z,2.60
